createdAt,value
2019-04-22T00:00:57.751Z,96220.58
2019-04-22T00:03:33.889Z,96214.41
2019-04-22T00:06:12.882Z,96213.42
2019-04-22T00:08:44.562Z,96209.61
2019-04-22T00:11:18.130Z,96211.41
2019-04-22T00:13:47.185Z,96209.27
2019-04-22T00:16:07.425Z,96210.28
2019-04-22T00:18:47.394Z,96208.10
2019-04-22T00:21:04.502Z,96213.06
2019-04-22T00:23:31.770Z,96207.61
2019-04-22T00:26:01.651Z,96203.48
2019-04-22T00:28:34.998Z,96201.12
2019-04-22T00:30:56.049Z,96196.70
2019-04-22T00:33:29.060Z,96196.11
2019-04-22T00:35:58.287Z,96187.18
2019-04-22T00:38:31.434Z,96200.46
2019-04-22T00:41:01.089Z,96186.06
2019-04-22T00:43:24.662Z,96185.14
2019-04-22T00:45:48.142Z,96182.15
2019-04-22T00:48:48.606Z,96179.86
2019-04-22T00:51:01.328Z,96180.92
2019-04-22T00:53:26.625Z,96177.84
2019-04-22T00:56:00.584Z,96172.02
2019-04-22T00:58:31.000Z,96174.54
2019-04-22T01:01:01.884Z,96174.48
2019-04-22T01:03:25.943Z,96177.19
2019-04-22T01:05:58.040Z,96180.48
2019-04-22T01:08:25.310Z,96176.58
2019-04-22T01:10:53.976Z,96175.18
2019-04-22T01:13:18.570Z,96171.47
2019-04-22T01:16:09.061Z,96169.38
2019-04-22T01:18:09.333Z,96173.59
2019-04-22T01:21:00.581Z,96170.70
2019-04-22T01:23:03.843Z,96157.77
2019-04-22T01:25:32.821Z,96154.97
2019-04-22T01:27:55.987Z,96150.02
2019-04-22T01:30:22.156Z,96154.31
2019-04-22T01:32:41.815Z,96150.22
2019-04-22T01:35:17.978Z,96143.17
2019-04-22T01:37:52.579Z,96139.23
2019-04-22T01:43:01.864Z,96133.80
2019-04-22T01:45:26.464Z,96133.19
2019-04-22T01:47:49.219Z,96135.11
2019-04-22T01:50:18.980Z,96135.11
2019-04-22T01:52:47.342Z,96135.53
2019-04-22T01:55:22.271Z,96128.44
2019-04-22T01:57:43.269Z,96124.17
2019-04-22T02:00:00.779Z,96123.23
2019-04-22T02:02:40.077Z,96120.50
2019-04-22T02:05:10.596Z,96118.97
2019-04-22T02:07:37.105Z,96128.13
2019-04-22T02:10:26.865Z,96121.80
2019-04-22T02:12:25.886Z,96115.35
2019-04-22T02:14:57.837Z,96119.88
2019-04-22T02:17:26.718Z,96117.22
2019-04-22T02:19:57.827Z,96117.70
2019-04-22T02:22:39.797Z,96112.23
2019-04-22T02:24:59.112Z,96110.89
2019-04-22T02:27:17.679Z,96104.89
2019-04-22T02:29:43.937Z,96101.67
2019-04-22T02:32:19.489Z,96106.87
2019-04-22T02:37:17.762Z,96098.30
2019-04-22T02:49:29.202Z,96088.05
2019-04-22T02:51:52.191Z,96081.50
2019-04-22T02:54:40.431Z,96077.46
2019-04-22T02:56:54.392Z,96086.66
2019-04-22T02:59:25.411Z,96075.94
2019-04-22T03:06:56.113Z,96074.14
2019-04-22T03:09:21.820Z,96066.59
2019-04-22T03:11:58.560Z,96064.81
2019-04-22T03:16:50.337Z,96061.50
2019-04-22T03:19:18.070Z,96060.53
2019-04-22T03:24:16.101Z,96056.09
2019-04-22T03:28:57.114Z,96051.11
2019-04-22T03:32:12.870Z,96050.52
2019-04-22T03:37:10.996Z,96040.48
2019-04-22T03:41:57.234Z,96051.53
2019-04-22T03:44:27.036Z,96048.16
2019-04-22T03:46:53.209Z,96047.04
2019-04-22T03:49:17.658Z,96046.73
2019-04-22T03:54:19.099Z,96035.89
2019-04-22T03:59:09.752Z,96022.98
2019-04-22T04:01:36.867Z,96022.44
2019-04-22T04:04:04.188Z,96024.94
2019-04-22T04:06:36.218Z,96023.45
2019-04-22T04:08:57.294Z,96023.11
2019-04-22T04:11:29.902Z,96023.89
2019-04-22T04:16:14.886Z,96019.23
2019-04-22T04:18:52.601Z,96010.00
2019-04-22T04:21:22.936Z,96009.64
2019-04-22T04:23:50.441Z,96010.16
2019-04-22T04:26:00.939Z,96004.23
2019-04-22T04:31:02.667Z,95994.06
2019-04-22T04:33:31.315Z,95995.73
2019-04-22T04:38:24.484Z,95991.22
2019-04-22T04:40:49.087Z,95988.42
2019-04-22T04:43:25.212Z,95983.70
2019-04-22T04:45:54.688Z,95979.80
2019-04-22T04:48:21.075Z,95966.30
2019-04-22T04:50:55.758Z,95980.41
2019-04-22T04:55:53.149Z,95980.38
2019-04-22T05:01:20.916Z,95976.33
2019-04-22T05:03:15.571Z,95976.63
2019-04-22T05:05:39.763Z,95978.11
2019-04-22T05:08:05.654Z,95977.09
2019-04-22T05:13:01.293Z,95976.03
2019-04-22T05:18:02.907Z,95973.88
2019-04-22T05:20:34.160Z,95984.82
2019-04-22T05:22:51.358Z,95983.56
2019-04-22T05:25:18.973Z,95992.14
2019-04-22T05:27:49.172Z,95988.79
2019-04-22T05:30:23.607Z,95985.77
2019-04-22T05:35:10.536Z,95979.73
2019-04-22T05:37:36.832Z,95966.95
2019-04-22T05:40:11.888Z,95981.36
2019-04-22T05:42:26.912Z,95972.08
2019-04-22T05:44:55.204Z,95980.62
2019-04-22T05:47:25.396Z,95974.62
2019-04-22T05:49:48.082Z,95979.11
2019-04-22T05:52:21.128Z,95971.75
2019-04-22T05:54:50.872Z,95975.20
2019-04-22T05:57:21.476Z,95966.42
2019-04-22T05:59:46.240Z,95961.05
2019-04-22T06:04:45.890Z,95960.17
2019-04-22T06:07:06.557Z,95964.61
2019-04-22T06:09:32.629Z,95952.86
2019-04-22T06:12:00.399Z,95965.50
2019-04-22T06:14:31.430Z,95960.39
2019-04-22T06:17:08.188Z,95956.45
2019-04-22T06:19:27.859Z,95949.45
2019-04-22T06:21:57.986Z,95943.88
2019-04-22T06:27:04.511Z,95937.74
2019-04-22T06:29:19.379Z,95939.12
2019-04-22T06:32:12.050Z,95933.42
2019-04-22T06:36:45.081Z,95935.95
2019-04-22T06:39:14.277Z,95926.70
2019-04-22T06:41:43.640Z,95929.71
2019-04-22T06:44:11.006Z,95922.22
2019-04-22T06:46:35.138Z,95917.78
2019-04-22T06:49:03.654Z,95915.19
2019-04-22T06:51:33.073Z,95921.30
2019-04-22T06:54:00.102Z,95915.84
2019-04-22T06:56:22.181Z,95925.32
2019-04-22T06:58:55.253Z,95916.60
2019-04-22T07:06:24.057Z,95907.14
2019-04-22T07:11:05.797Z,95910.80
2019-04-22T07:13:43.982Z,95904.66
2019-04-22T07:16:06.634Z,95897.65
2019-04-22T07:18:37.287Z,95896.61
2019-04-22T07:21:01.313Z,95896.44
2019-04-22T07:23:41.456Z,95891.73
2019-04-22T07:26:00.319Z,95885.41
2019-04-22T07:28:22.968Z,95884.34
2019-04-22T07:30:57.945Z,95870.05
2019-04-22T07:33:27.770Z,95868.45
2019-04-22T07:36:19.549Z,95868.45
2019-04-22T07:38:25.702Z,95865.16
2019-04-22T07:41:05.344Z,95856.59
2019-04-22T07:43:20.003Z,95856.59
2019-04-22T07:45:44.018Z,95859.77
2019-04-22T07:48:22.567Z,95858.23
2019-04-22T07:50:49.325Z,95859.34
2019-04-22T07:53:04.858Z,95843.73
2019-04-22T07:55:32.727Z,95851.53
2019-04-22T07:58:10.202Z,95846.45
2019-04-22T08:00:34.297Z,95853.78
2019-04-22T08:03:09.322Z,95841.29
2019-04-22T08:05:37.855Z,95838.06
2019-04-22T08:08:05.476Z,95838.66
2019-04-22T08:10:31.341Z,95838.66
2019-04-22T08:12:51.401Z,95842.41
2019-04-22T08:15:24.856Z,95835.38
2019-04-22T08:17:57.909Z,95836.91
2019-04-22T08:20:16.638Z,95830.45
2019-04-22T08:22:56.028Z,95829.77
2019-04-22T08:25:10.132Z,95829.77
2019-04-22T08:27:48.893Z,95826.70
2019-04-22T08:30:30.362Z,95812.32
2019-04-22T08:32:41.600Z,95812.89
2019-04-22T08:35:04.565Z,95812.89
2019-04-22T08:37:52.530Z,95806.33
2019-04-22T08:40:08.805Z,95810.08
2019-04-22T08:45:09.659Z,95798.28
2019-04-22T08:52:26.055Z,95795.92
2019-04-22T08:54:50.825Z,95788.42
2019-04-22T08:57:18.039Z,95794.98
2019-04-22T08:59:46.634Z,95791.85
2019-04-22T09:02:12.106Z,95789.20
2019-04-22T09:04:35.802Z,95784.17
2019-04-22T09:07:21.150Z,95779.86
2019-04-22T09:09:42.436Z,95769.73
2019-04-22T09:16:59.345Z,95768.84
2019-04-22T09:19:22.512Z,95756.20
2019-04-22T09:24:25.166Z,95749.91
2019-04-22T09:26:48.753Z,95750.69
2019-04-22T09:29:20.917Z,95749.30
2019-04-22T09:31:49.607Z,95747.30
2019-04-22T09:34:14.027Z,95748.48
2019-04-22T09:36:45.866Z,95737.06
2019-04-22T09:39:09.317Z,95725.13
2019-04-22T09:41:43.741Z,95726.48
2019-04-22T09:44:02.597Z,95726.02
2019-04-22T09:46:39.157Z,95730.13
2019-04-22T09:49:06.354Z,95673.76
2019-04-22T09:51:32.212Z,95727.72
2019-04-22T09:54:00.982Z,95725.19
2019-04-22T09:56:23.805Z,95718.02
2019-04-22T09:59:05.559Z,95720.39
2019-04-22T10:06:25.992Z,95712.53
2019-04-22T10:08:59.922Z,95705.98
2019-04-22T10:11:13.134Z,95704.16
2019-04-22T10:13:42.477Z,95696.63
2019-04-22T10:16:12.114Z,95684.70
2019-04-22T10:18:38.684Z,95682.44
2019-04-22T10:21:08.687Z,95657.32
2019-04-22T10:23:31.499Z,95680.79
2019-04-22T10:26:02.538Z,95668.48
2019-04-22T10:28:35.671Z,95651.19
2019-04-22T10:30:52.033Z,95673.42
2019-04-22T10:33:20.834Z,95664.30
2019-04-22T10:35:28.441Z,95659.34
2019-04-22T10:37:54.266Z,95659.03
2019-04-22T10:40:28.281Z,95666.89
2019-04-22T10:42:54.063Z,95664.68
2019-04-22T10:45:19.974Z,95653.92
2019-04-22T10:47:45.922Z,95649.59
2019-04-22T10:50:12.456Z,95649.87
2019-04-22T10:52:39.377Z,95644.53
2019-04-22T10:55:07.589Z,95635.13
2019-04-22T10:57:33.931Z,95628.20
2019-04-22T11:00:00.890Z,95624.16
2019-04-22T11:02:27.657Z,95612.25
2019-04-22T11:04:54.461Z,95610.84
2019-04-22T11:07:25.239Z,95605.91
2019-04-22T11:09:57.142Z,95612.57
2019-04-22T11:12:20.696Z,95604.45
2019-04-22T11:14:45.422Z,95600.85
2019-04-22T11:17:11.524Z,95595.84
2019-04-22T11:19:37.587Z,95595.12
2019-04-22T11:22:12.871Z,95589.89
2019-04-22T11:24:32.684Z,95589.08
2019-04-22T11:26:58.827Z,95603.27
2019-04-22T11:29:25.564Z,95590.63
2019-04-22T11:31:52.534Z,95589.27
2019-04-22T11:34:19.365Z,95588.21
2019-04-22T11:36:45.329Z,95575.95
2019-04-22T11:39:13.581Z,95581.25
2019-04-22T11:41:40.241Z,95570.88
2019-04-22T11:44:07.586Z,95568.58
2019-04-22T11:46:33.773Z,95562.59
2019-04-22T11:49:00.277Z,95562.53
2019-04-22T11:51:27.579Z,95550.61
2019-04-22T11:53:54.757Z,95548.20
2019-04-22T11:56:20.917Z,95543.42
2019-04-22T11:58:47.104Z,95541.88
2019-04-22T12:01:13.085Z,95539.30
2019-04-22T12:03:39.993Z,95535.63
2019-04-22T12:06:06.075Z,95535.72
2019-04-22T12:08:32.138Z,95536.10
2019-04-22T12:11:01.920Z,95529.00
2019-04-22T12:13:28.181Z,95521.04
2019-04-22T12:15:55.455Z,95512.16
2019-04-22T12:18:22.857Z,95519.78
2019-04-22T12:20:49.021Z,95428.31
2019-04-22T12:23:16.921Z,95507.59
2019-04-22T12:25:50.387Z,95500.12
2019-04-22T12:28:11.246Z,95501.59
2019-04-22T12:30:37.461Z,95495.77
2019-04-22T12:33:04.371Z,95493.42
2019-04-22T12:35:32.553Z,95491.73
2019-04-22T12:38:04.351Z,95491.61
2019-04-22T12:40:37.413Z,95492.50
2019-04-22T12:42:55.452Z,95483.41
2019-04-22T12:45:22.399Z,95496.95
2019-04-22T12:47:48.359Z,95483.14
2019-04-22T12:50:22.427Z,95478.10
2019-04-22T12:52:51.435Z,95472.59
2019-04-22T12:55:12.334Z,95463.36
2019-04-22T12:57:38.924Z,95461.06
2019-04-22T13:00:07.954Z,95465.84
2019-04-22T13:02:34.500Z,95464.91
2019-04-22T13:05:00.705Z,95453.77
2019-04-22T13:07:26.539Z,95454.52
2019-04-22T13:09:52.427Z,95444.98
2019-04-22T13:12:19.332Z,95434.75
2019-04-22T13:14:45.579Z,95431.88
2019-04-22T13:17:12.280Z,95426.63
2019-04-22T13:19:40.381Z,95436.41
2019-04-22T13:22:07.034Z,95426.57
2019-04-22T13:24:34.167Z,95427.66
2019-04-22T13:27:01.260Z,95420.31
2019-04-22T13:29:27.601Z,95404.91
2019-04-22T13:31:54.916Z,95409.13
2019-04-22T13:34:29.541Z,95405.30
2019-04-22T13:36:50.327Z,95402.20
2019-04-22T13:39:16.925Z,95403.27
2019-04-22T13:41:48.788Z,95400.88
2019-04-22T13:44:10.744Z,95386.95
2019-04-22T13:46:38.689Z,95392.63
2019-04-22T13:49:38.253Z,95385.22
2019-04-22T13:52:01.070Z,95388.32
2019-04-22T13:56:48.039Z,95375.35
2019-04-22T13:59:08.539Z,95370.84
2019-04-22T14:01:25.352Z,95370.93
2019-04-22T14:04:05.092Z,95366.35
2019-04-22T14:06:31.234Z,95374.33
2019-04-22T14:08:57.108Z,95370.23
2019-04-22T14:11:34.484Z,95358.06
2019-04-22T14:13:52.078Z,95361.84
2019-04-22T14:16:19.548Z,95360.64
2019-04-22T14:18:46.080Z,95352.78
2019-04-22T14:21:12.589Z,95351.15
2019-04-22T14:23:38.601Z,95351.58
2019-04-22T14:26:05.207Z,95348.30
2019-04-22T14:28:32.761Z,95346.09
2019-04-22T14:31:00.233Z,95343.53
2019-04-22T14:33:26.235Z,95340.16
2019-04-22T14:35:52.112Z,95337.72
2019-04-22T14:38:18.362Z,95281.38
2019-04-22T14:40:45.506Z,95329.52
2019-04-22T14:43:35.119Z,95325.84
2019-04-22T14:46:07.656Z,95321.55
2019-04-22T14:48:38.792Z,95311.25
2019-04-22T14:50:56.289Z,95312.72
2019-04-22T14:53:22.816Z,95312.81
2019-04-22T14:55:34.606Z,95311.81
2019-04-22T14:57:59.260Z,95304.74
2019-04-22T15:00:26.324Z,95306.25
2019-04-22T15:02:52.244Z,95301.03
2019-04-22T15:05:18.624Z,95301.65
2019-04-22T15:07:44.724Z,95294.03
2019-04-22T15:10:13.620Z,95288.75
2019-04-22T15:12:45.818Z,95293.09
2019-04-22T15:15:23.622Z,95288.16
2019-04-22T15:17:52.344Z,95279.20
2019-04-22T15:20:27.660Z,95271.94
2019-04-22T15:22:54.726Z,95270.88
2019-04-22T15:25:20.757Z,95268.70
2019-04-22T15:27:47.792Z,95261.88
2019-04-22T15:30:15.090Z,95268.06
2019-04-22T15:32:41.296Z,95265.28
2019-04-22T15:35:09.061Z,95258.39
2019-04-22T15:37:35.182Z,95251.15
2019-04-22T15:40:02.706Z,95250.94
2019-04-22T15:42:34.553Z,95243.23
2019-04-22T15:44:57.906Z,95244.50
2019-04-22T15:47:24.950Z,95197.27
2019-04-22T15:49:52.157Z,95236.87
2019-04-22T15:52:18.952Z,95235.20
2019-04-22T15:54:48.800Z,95232.98
2019-04-22T15:57:12.911Z,95236.39
2019-04-22T15:59:58.892Z,95237.38
2019-04-22T16:02:08.246Z,95229.19
2019-04-22T16:04:34.840Z,95231.92
2019-04-22T16:07:01.204Z,95226.71
2019-04-22T16:09:27.167Z,95231.63
2019-04-22T16:11:54.021Z,95225.71
2019-04-22T16:14:27.483Z,95229.28
2019-04-22T16:16:48.390Z,95217.30
2019-04-22T16:19:14.333Z,95214.70
2019-04-22T16:21:48.008Z,95216.52
2019-04-22T16:24:16.318Z,95221.81
2019-04-22T16:26:50.587Z,95218.91
2019-04-22T16:29:19.079Z,95214.67
2019-04-22T16:31:45.288Z,95214.03
2019-04-22T16:34:11.436Z,95208.92
2019-04-22T16:36:38.640Z,95209.70
2019-04-22T16:39:10.971Z,95212.32
2019-04-22T16:41:37.133Z,95210.20
2019-04-22T16:44:04.668Z,95207.77
2019-04-22T16:46:31.795Z,95200.58
2019-04-22T16:48:58.043Z,95205.75
2019-04-22T16:51:24.441Z,95206.13
2019-04-22T16:53:50.885Z,95207.52
2019-04-22T16:56:17.130Z,95202.18
2019-04-22T16:58:43.322Z,95194.52
2019-04-22T17:01:30.393Z,95202.50
2019-04-22T17:04:16.500Z,95201.05
2019-04-22T17:06:45.601Z,95188.83
2019-04-22T17:09:14.209Z,95174.12
2019-04-22T17:11:40.233Z,95189.11
2019-04-22T17:14:07.751Z,95188.30
2019-04-22T17:16:34.530Z,95181.30
2019-04-22T17:19:02.417Z,95180.56
2019-04-22T17:21:29.789Z,95185.43
2019-04-22T17:23:56.456Z,95182.91
2019-04-22T17:26:22.236Z,95190.48
2019-04-22T17:28:55.534Z,95183.60
2019-04-22T17:31:24.865Z,95202.73
2019-04-22T17:33:51.080Z,95192.17
2019-04-22T17:36:18.217Z,95195.27
2019-04-22T17:38:54.255Z,95193.23
2019-04-22T17:41:25.388Z,95189.88
2019-04-22T17:44:09.864Z,95190.63
2019-04-22T17:46:41.718Z,95185.61
2019-04-22T17:49:17.098Z,95191.14
2019-04-22T17:51:45.649Z,95185.13
2019-04-22T17:54:17.314Z,95194.22
2019-04-22T17:56:43.365Z,95190.02
2019-04-22T17:59:10.389Z,95188.09
2019-04-22T18:01:41.744Z,95193.60
2019-04-22T18:03:52.920Z,95190.84
2019-04-22T18:06:44.058Z,95195.19
2019-04-22T18:09:01.873Z,95179.10
2019-04-22T18:11:40.156Z,95195.92
2019-04-22T18:14:16.169Z,95196.11
2019-04-22T18:16:31.434Z,95192.63
2019-04-22T18:18:58.435Z,95197.49
2019-04-22T18:21:17.299Z,95194.07
2019-04-22T18:23:41.608Z,95202.67
2019-04-22T18:26:18.887Z,95201.47
2019-04-22T18:28:52.486Z,95201.94
2019-04-22T18:31:14.979Z,95199.75
2019-04-22T18:36:09.948Z,95196.47
2019-04-22T18:38:46.691Z,95198.35
2019-04-22T18:41:04.968Z,95193.83
2019-04-22T18:43:32.997Z,95205.88
2019-04-22T18:46:05.329Z,95195.45
2019-04-22T18:48:32.053Z,95204.20
2019-04-22T18:51:11.916Z,95198.66
2019-04-22T18:53:48.323Z,95195.13
2019-04-22T18:56:19.203Z,95193.38
2019-04-22T18:58:39.088Z,95192.98
2019-04-22T19:00:54.843Z,95189.11
2019-04-22T19:03:26.323Z,95182.89
2019-04-22T19:06:21.590Z,95179.47
2019-04-22T19:08:43.064Z,95176.20
2019-04-22T19:11:08.492Z,95180.42
2019-04-22T19:16:24.388Z,95179.28
2019-04-22T19:18:50.243Z,95175.18
2019-04-22T19:21:03.030Z,95174.19
2019-04-22T19:23:28.473Z,95176.31
2019-04-22T19:25:52.629Z,95179.61
2019-04-22T19:28:29.386Z,95180.80
2019-04-22T19:30:56.228Z,95180.09
2019-04-22T19:33:19.231Z,95175.58
2019-04-22T19:35:40.026Z,95174.34
2019-04-22T19:38:06.702Z,95175.67
2019-04-22T19:43:09.153Z,95176.83
2019-04-22T19:45:37.038Z,95168.48
2019-04-22T19:48:16.692Z,95180.61
2019-04-22T19:50:35.414Z,95168.09
2019-04-22T19:53:04.913Z,95174.45
2019-04-22T19:55:29.796Z,95174.45
2019-04-22T19:57:54.793Z,95170.03
2019-04-22T20:00:28.363Z,95170.03
2019-04-22T20:03:12.936Z,95170.41
2019-04-22T20:05:37.237Z,95161.75
2019-04-22T20:08:04.751Z,95166.11
2019-04-22T20:10:26.496Z,95166.11
2019-04-22T20:12:55.832Z,95168.46
2019-04-22T20:15:23.014Z,95156.73
2019-04-22T20:18:20.882Z,95157.74
2019-04-22T20:20:26.458Z,95163.61
2019-04-22T20:22:45.138Z,95163.61
2019-04-22T20:25:06.547Z,95160.48
2019-04-22T20:27:47.561Z,95152.53
2019-04-22T20:30:14.091Z,95150.36
2019-04-22T20:32:37.690Z,95146.67
2019-04-22T20:35:07.904Z,95146.67
2019-04-22T20:37:38.464Z,95146.77
2019-04-22T20:40:08.588Z,95141.67
2019-04-22T20:42:45.088Z,95138.70
2019-04-22T20:44:57.233Z,95142.36
2019-04-22T20:47:25.225Z,95141.09
2019-04-22T20:49:55.435Z,95144.41
2019-04-22T20:52:29.538Z,95137.84
2019-04-22T20:54:50.936Z,95139.52
2019-04-22T20:57:17.167Z,95136.20
2019-04-22T20:59:44.907Z,95135.89
2019-04-22T21:02:11.479Z,95136.59
2019-04-22T21:04:33.302Z,95129.73
2019-04-22T21:07:05.193Z,95122.59
2019-04-22T21:09:36.645Z,95122.59
2019-04-22T21:11:59.509Z,95119.82
2019-04-22T21:14:27.045Z,95123.44
2019-04-22T21:17:03.503Z,95121.44
2019-04-22T21:19:37.901Z,95124.55
2019-04-22T21:21:58.072Z,95123.82
2019-04-22T21:24:21.834Z,95120.55
2019-04-22T21:26:47.059Z,95121.39
2019-04-22T21:29:17.262Z,95114.81
2019-04-22T21:31:52.613Z,95113.02
2019-04-22T21:34:16.135Z,95112.17
2019-04-22T21:36:51.131Z,95103.81
2019-04-22T21:39:10.965Z,95097.78
2019-04-22T21:41:36.949Z,95101.09
2019-04-22T21:44:05.532Z,95100.14
2019-04-22T21:46:35.332Z,95094.92
2019-04-22T21:49:06.217Z,95092.95
2019-04-22T21:51:39.693Z,95084.89
2019-04-22T21:54:06.860Z,95084.31
2019-04-22T21:56:41.017Z,95083.31
2019-04-22T21:59:00.161Z,95079.72
2019-04-22T22:04:03.501Z,95074.98
2019-04-22T22:06:21.872Z,95066.30
2019-04-22T22:08:57.830Z,95071.24
2019-04-22T22:11:23.574Z,95074.55
2019-04-22T22:13:50.340Z,95073.39
2019-04-22T22:16:16.069Z,95070.77
2019-04-22T22:18:50.643Z,95062.23
2019-04-22T22:21:33.816Z,95061.60
2019-04-22T22:23:45.683Z,95063.27
2019-04-22T22:26:05.709Z,95065.10
2019-04-22T22:31:09.213Z,95063.66
2019-04-22T22:33:37.944Z,95056.45
2019-04-22T22:36:03.548Z,95060.39
2019-04-22T22:38:27.111Z,95051.67
2019-04-22T22:40:40.452Z,95055.30
2019-04-22T22:43:13.669Z,95047.56
2019-04-22T22:45:39.734Z,95052.38
2019-04-22T22:48:41.333Z,95054.52
2019-04-22T22:50:47.821Z,95044.36
2019-04-22T22:55:46.278Z,95035.16
2019-04-22T22:58:16.174Z,95038.63
2019-04-22T23:00:35.106Z,95037.81
2019-04-22T23:03:29.129Z,95033.84
2019-04-22T23:05:38.882Z,95033.36
2019-04-22T23:08:09.622Z,95025.64
2019-04-22T23:10:47.669Z,95026.14
2019-04-22T23:13:09.938Z,95025.95
2019-04-22T23:15:26.025Z,95024.02
2019-04-22T23:17:39.290Z,95026.34
2019-04-22T23:20:07.223Z,95016.97
2019-04-22T23:22:58.967Z,95019.12
2019-04-22T23:25:28.606Z,95009.61
2019-04-22T23:27:52.472Z,95012.23
2019-04-22T23:30:32.369Z,95014.19
2019-04-22T23:33:13.282Z,95015.84
2019-04-22T23:35:37.182Z,95018.13
2019-04-22T23:38:06.904Z,95020.43
2019-04-22T23:40:39.065Z,95017.78
2019-04-22T23:43:11.107Z,95015.83
2019-04-22T23:45:34.923Z,95009.74
2019-04-22T23:47:49.855Z,95012.72
2019-04-22T23:50:34.069Z,94999.74
2019-04-22T23:53:02.462Z,95010.91
2019-04-22T23:55:29.518Z,95000.27
2019-04-22T23:57:57.146Z,94989.31
